createdAt,value
2019-02-22T00:01:59.409Z,55.80
2019-02-22T00:04:26.565Z,50.27
2019-02-22T00:06:53.740Z,52.10
2019-02-22T00:09:21.161Z,49.03
2019-02-22T00:11:48.362Z,51.23
2019-02-22T00:14:15.571Z,53.37
2019-02-22T00:16:42.775Z,49.53
2019-02-22T00:19:10.045Z,52.20
2019-02-22T00:21:37.229Z,48.57
2019-02-22T00:24:04.471Z,56.83
2019-02-22T00:26:31.691Z,49.23
2019-02-22T00:28:58.988Z,51.57
2019-02-22T00:31:26.208Z,50.13
2019-02-22T00:33:54.387Z,51.80
2019-02-22T00:36:21.636Z,52.70
2019-02-22T00:38:48.706Z,53.07
2019-02-22T00:41:15.887Z,48.47
2019-02-22T00:43:44.080Z,50.10
2019-02-22T00:46:11.267Z,48.97
2019-02-22T00:48:38.740Z,50.30
2019-02-22T00:51:05.919Z,57.23
2019-02-22T00:53:33.259Z,48.97
2019-02-22T00:56:00.409Z,56.37
2019-02-22T00:58:27.620Z,48.77
2019-02-22T01:00:54.832Z,49.30
2019-02-22T01:03:22.441Z,55.60
2019-02-22T01:05:49.546Z,52.40
2019-02-22T01:08:16.736Z,53.33
2019-02-22T01:10:44.601Z,55.07
2019-02-22T01:13:11.763Z,49.97
2019-02-22T01:15:39.196Z,54.07
2019-02-22T01:18:06.261Z,56.23
2019-02-22T01:20:33.739Z,60.43
2019-02-22T01:23:00.918Z,59.17
2019-02-22T01:25:28.196Z,54.20
2019-02-22T01:27:55.483Z,51.03
2019-02-22T01:30:22.734Z,55.37
2019-02-22T01:32:49.784Z,53.50
2019-02-22T01:35:16.978Z,54.03
2019-02-22T01:37:44.100Z,49.93
2019-02-22T01:40:11.300Z,55.37
2019-02-22T01:42:38.574Z,53.53
2019-02-22T01:45:06.264Z,53.03
2019-02-22T01:47:33.439Z,57.60
2019-02-22T01:50:00.609Z,65.20
2019-02-22T01:52:27.919Z,54.73
2019-02-22T01:54:55.008Z,50.97
2019-02-22T01:57:22.196Z,53.37
2019-02-22T01:59:49.588Z,60.60
2019-02-22T02:02:16.797Z,53.30
2019-02-22T02:04:44.006Z,50.87
2019-02-22T02:07:11.374Z,54.07
2019-02-22T02:09:38.914Z,57.70
2019-02-22T02:12:06.111Z,52.27
2019-02-22T02:14:33.328Z,49.97
2019-02-22T02:17:00.536Z,56.13
2019-02-22T02:19:27.718Z,52.57
2019-02-22T02:21:54.951Z,54.07
2019-02-22T02:24:22.124Z,56.50
2019-02-22T02:26:49.345Z,57.03
2019-02-22T02:29:16.537Z,59.77
2019-02-22T02:31:44.135Z,57.23
2019-02-22T02:34:11.309Z,59.43
2019-02-22T02:36:38.532Z,61.10
2019-02-22T02:39:06.217Z,61.27
2019-02-22T02:41:33.494Z,64.63
2019-02-22T02:44:00.914Z,62.63
2019-02-22T02:46:28.180Z,64.43
2019-02-22T02:48:55.719Z,61.40
2019-02-22T02:51:22.996Z,64.87
2019-02-22T02:53:50.316Z,67.43
2019-02-22T02:56:17.493Z,71.33
2019-02-22T02:58:44.735Z,61.00
2019-02-22T03:01:11.969Z,58.33
2019-02-22T03:03:39.645Z,65.73
2019-02-22T03:06:29.902Z,60.27
2019-02-22T03:08:57.465Z,58.40
2019-02-22T03:11:24.690Z,61.83
2019-02-22T03:13:52.373Z,60.00
2019-02-22T03:16:20.078Z,62.60
2019-02-22T03:18:47.278Z,58.20
2019-02-22T03:21:14.488Z,55.07
2019-02-22T03:23:42.133Z,65.13
2019-02-22T03:26:09.514Z,57.30
2019-02-22T03:28:36.830Z,64.23
2019-02-22T03:31:04.005Z,60.70
2019-02-22T03:33:31.189Z,56.97
2019-02-22T03:35:58.387Z,61.67
2019-02-22T03:38:25.663Z,60.47
2019-02-22T03:40:52.861Z,61.47
2019-02-22T03:43:20.085Z,59.97
2019-02-22T03:46:28.072Z,58.80
2019-02-22T03:49:27.195Z,60.70
2019-02-22T03:55:27.885Z,51.67
2019-02-22T04:00:56.741Z,57.50
2019-02-22T04:03:35.567Z,54.03
2019-02-22T04:06:02.816Z,49.17
2019-02-22T04:11:31.423Z,53.70
2019-02-22T04:13:58.647Z,48.63
2019-02-22T04:16:45.333Z,61.43
2019-02-22T04:19:32.003Z,50.80
2019-02-22T04:25:45.206Z,49.00
2019-02-22T04:28:12.401Z,64.10
2019-02-22T04:30:39.478Z,55.10
2019-02-22T04:35:47.157Z,55.87
2019-02-22T04:38:14.385Z,57.57
2019-02-22T04:46:02.491Z,58.37
2019-02-22T04:49:10.492Z,52.47
2019-02-22T04:51:58.994Z,50.87
2019-02-22T04:54:26.404Z,56.10
2019-02-22T04:57:05.923Z,59.23
2019-02-22T05:03:26.499Z,55.03
2019-02-22T05:05:53.589Z,50.00
2019-02-22T05:08:40.249Z,53.53
2019-02-22T05:11:07.811Z,49.13
2019-02-22T05:13:46.957Z,55.23
2019-02-22T05:19:33.967Z,47.67
2019-02-22T05:22:01.152Z,55.90
2019-02-22T05:24:40.331Z,54.73
2019-02-22T05:27:07.476Z,50.17
2019-02-22T05:29:34.572Z,50.80
2019-02-22T05:32:01.749Z,51.57
2019-02-22T05:34:28.914Z,39.83
2019-02-22T05:36:56.113Z,42.10
2019-02-22T05:39:23.317Z,27.47
2019-02-22T05:41:50.435Z,23.87
2019-02-22T05:44:17.670Z,20.93
2019-02-22T05:47:16.534Z,22.10
2019-02-22T05:50:03.178Z,25.77
2019-02-22T05:52:49.944Z,20.70
2019-02-22T05:58:16.550Z,20.10
2019-02-22T06:01:03.204Z,15.57
2019-02-22T06:03:49.907Z,20.20
2019-02-22T06:06:17.094Z,14.40
2019-02-22T06:08:44.283Z,17.47
2019-02-22T06:11:11.814Z,15.20
2019-02-22T06:13:39.000Z,16.17
2019-02-22T06:16:06.478Z,19.67
2019-02-22T06:18:34.046Z,15.33
2019-02-22T06:21:01.476Z,16.40
2019-02-22T06:23:28.906Z,15.80
2019-02-22T06:29:16.925Z,17.87
2019-02-22T06:34:45.731Z,17.50
2019-02-22T06:40:26.249Z,16.37
2019-02-22T06:42:53.436Z,15.40
2019-02-22T06:45:20.751Z,16.43
2019-02-22T06:48:07.310Z,15.67
2019-02-22T06:50:34.439Z,16.03
2019-02-22T06:53:01.660Z,16.00
2019-02-22T06:55:42.529Z,14.93
2019-02-22T06:58:29.101Z,16.50
2019-02-22T07:00:56.711Z,14.33
2019-02-22T07:03:23.940Z,13.80
2019-02-22T07:05:51.038Z,16.07
2019-02-22T07:08:39.543Z,19.83
2019-02-22T07:11:20.977Z,15.40
2019-02-22T07:13:48.241Z,17.00
2019-02-22T07:16:15.531Z,15.70
2019-02-22T07:18:42.749Z,17.20
2019-02-22T07:21:09.931Z,22.13
2019-02-22T07:23:37.104Z,18.23
2019-02-22T07:26:04.216Z,16.07
2019-02-22T07:28:31.396Z,14.43
2019-02-22T07:30:58.474Z,16.93
2019-02-22T07:33:25.659Z,15.67
2019-02-22T07:35:52.813Z,13.70
2019-02-22T07:38:19.986Z,12.83
2019-02-22T07:40:47.173Z,14.23
2019-02-22T07:43:14.436Z,14.03
2019-02-22T07:45:41.637Z,13.93
2019-02-22T07:48:08.708Z,15.97
2019-02-22T07:50:35.840Z,13.87
2019-02-22T07:53:02.972Z,19.60
2019-02-22T07:55:30.166Z,17.03
2019-02-22T07:57:57.368Z,23.90
2019-02-22T08:00:24.539Z,15.13
2019-02-22T08:02:51.686Z,14.73
2019-02-22T08:05:18.957Z,10.87
2019-02-22T08:07:46.021Z,13.73
2019-02-22T08:10:13.223Z,16.57
2019-02-22T08:12:40.874Z,15.17
2019-02-22T08:15:08.872Z,20.97
2019-02-22T08:17:36.169Z,13.73
2019-02-22T08:20:03.808Z,11.17
2019-02-22T08:22:31.024Z,13.00
2019-02-22T08:24:59.302Z,11.33
2019-02-22T08:27:26.544Z,15.57
2019-02-22T08:29:53.719Z,9.87
2019-02-22T08:32:21.122Z,14.27
2019-02-22T08:34:48.332Z,10.90
2019-02-22T08:37:15.516Z,8.67
2019-02-22T08:39:42.723Z,10.40
2019-02-22T08:42:10.247Z,8.53
2019-02-22T08:44:37.425Z,10.97
2019-02-22T08:47:04.622Z,10.00
2019-02-22T08:49:31.703Z,7.80
2019-02-22T08:51:58.915Z,9.27
2019-02-22T08:54:25.995Z,9.53
2019-02-22T08:56:53.278Z,9.10
2019-02-22T08:59:20.811Z,11.13
2019-02-22T09:01:47.998Z,7.60
2019-02-22T09:04:15.197Z,9.00
2019-02-22T09:06:42.457Z,18.97
2019-02-22T09:09:09.629Z,7.07
2019-02-22T09:11:36.886Z,9.67
2019-02-22T09:14:04.081Z,6.50
2019-02-22T09:16:31.293Z,7.70
2019-02-22T09:18:58.498Z,12.60
2019-02-22T09:21:25.750Z,7.37
2019-02-22T09:23:53.025Z,6.60
2019-02-22T09:26:20.612Z,11.63
2019-02-22T09:28:48.296Z,10.50
2019-02-22T09:31:15.472Z,8.30
2019-02-22T09:33:42.695Z,4.90
2019-02-22T09:36:10.265Z,8.10
2019-02-22T09:38:37.480Z,10.50
2019-02-22T09:41:04.773Z,5.90
2019-02-22T09:43:31.993Z,12.87
2019-02-22T09:46:00.377Z,8.37
2019-02-22T09:48:31.021Z,4.07
2019-02-22T09:50:58.717Z,5.03
2019-02-22T09:53:26.308Z,3.87
2019-02-22T09:56:00.775Z,6.70
2019-02-22T10:01:42.869Z,8.33
2019-02-22T10:04:10.508Z,7.07
2019-02-22T10:06:37.851Z,4.17
2019-02-22T10:09:06.247Z,8.47
2019-02-22T10:11:33.709Z,7.33
2019-02-22T10:14:06.606Z,5.73
2019-02-22T10:16:30.311Z,7.80
2019-02-22T10:18:57.629Z,3.80
2019-02-22T10:21:25.006Z,4.70
2019-02-22T10:23:52.341Z,3.70
2019-02-22T10:26:21.383Z,7.63
2019-02-22T10:28:48.856Z,9.20
2019-02-22T10:31:16.340Z,19.47
2019-02-22T10:33:43.625Z,2.70
2019-02-22T10:36:10.923Z,4.63
2019-02-22T10:38:38.556Z,7.37
2019-02-22T10:41:05.757Z,11.23
2019-02-22T10:43:32.954Z,4.90
2019-02-22T10:46:00.143Z,6.20
2019-02-22T10:48:27.331Z,3.70
2019-02-22T10:50:54.441Z,3.37
2019-02-22T10:53:21.683Z,6.33
2019-02-22T10:55:48.881Z,3.57
2019-02-22T10:58:16.147Z,6.17
2019-02-22T11:00:43.462Z,5.87
2019-02-22T11:03:10.625Z,5.57
2019-02-22T11:05:37.734Z,7.30
2019-02-22T11:08:04.939Z,6.67
2019-02-22T11:10:32.871Z,6.30
2019-02-22T11:13:00.120Z,3.60
2019-02-22T11:15:27.384Z,6.17
2019-02-22T11:17:54.545Z,5.67
2019-02-22T11:20:22.290Z,6.30
2019-02-22T11:22:49.494Z,3.87
2019-02-22T11:25:16.794Z,3.80
2019-02-22T11:27:43.927Z,6.70
2019-02-22T11:30:11.377Z,3.57
2019-02-22T11:32:38.856Z,5.60
2019-02-22T11:35:06.458Z,7.97
2019-02-22T11:37:33.933Z,6.60
2019-02-22T11:40:01.111Z,3.63
2019-02-22T11:42:28.297Z,7.23
2019-02-22T11:44:55.536Z,6.03
2019-02-22T11:47:22.672Z,5.43
2019-02-22T11:49:49.881Z,6.50
2019-02-22T11:52:17.087Z,5.90
2019-02-22T11:54:44.279Z,8.00
2019-02-22T11:57:11.630Z,9.23
2019-02-22T11:59:38.910Z,9.30
2019-02-22T12:02:06.060Z,4.80
2019-02-22T12:04:33.232Z,6.40
2019-02-22T12:07:00.460Z,12.60
2019-02-22T12:09:28.510Z,7.70
2019-02-22T12:11:55.664Z,5.60
2019-02-22T12:14:22.890Z,6.13
2019-02-22T12:16:50.031Z,5.40
2019-02-22T12:19:17.354Z,5.13
2019-02-22T12:21:44.526Z,5.43
2019-02-22T12:24:11.714Z,9.47
2019-02-22T12:26:39.500Z,6.63
2019-02-22T12:29:10.037Z,5.10
2019-02-22T12:31:37.237Z,6.40
2019-02-22T12:34:04.442Z,6.63
2019-02-22T12:36:31.647Z,4.40
2019-02-22T12:38:58.899Z,6.13
2019-02-22T12:41:26.080Z,9.63
2019-02-22T12:43:53.360Z,7.20
2019-02-22T12:46:20.516Z,6.43
2019-02-22T12:48:47.716Z,7.80
2019-02-22T12:51:14.974Z,13.90
2019-02-22T12:53:42.173Z,17.17
2019-02-22T12:56:09.342Z,4.97
2019-02-22T12:58:36.561Z,4.70
2019-02-22T13:01:03.831Z,5.20
2019-02-22T13:03:31.273Z,7.30
2019-02-22T13:05:59.131Z,11.67
2019-02-22T13:08:26.299Z,10.83
2019-02-22T13:10:53.475Z,7.40
2019-02-22T13:13:20.687Z,6.80
2019-02-22T13:15:47.844Z,5.80
2019-02-22T13:18:15.059Z,11.80
2019-02-22T13:20:42.169Z,6.23
2019-02-22T13:23:09.363Z,8.00
2019-02-22T13:25:36.595Z,7.27
2019-02-22T13:28:03.896Z,7.67
2019-02-22T13:30:31.063Z,8.03
2019-02-22T13:32:58.235Z,11.63
2019-02-22T13:35:25.441Z,7.53
2019-02-22T13:37:52.694Z,8.67
2019-02-22T13:40:20.207Z,8.00
2019-02-22T13:42:47.425Z,12.20
2019-02-22T13:45:25.643Z,13.70
2019-02-22T13:47:43.744Z,8.07
2019-02-22T13:50:11.723Z,6.23
2019-02-22T13:52:39.077Z,6.63
2019-02-22T13:55:06.640Z,6.70
2019-02-22T13:57:33.844Z,7.40
2019-02-22T14:00:01.141Z,7.03
2019-02-22T14:02:28.318Z,6.40
2019-02-22T14:04:55.510Z,7.40
2019-02-22T14:07:22.683Z,9.40
2019-02-22T14:09:49.951Z,11.40
2019-02-22T14:12:17.976Z,6.10
2019-02-22T14:14:45.179Z,7.90
2019-02-22T14:17:12.265Z,6.80
2019-02-22T14:19:39.779Z,9.13
2019-02-22T14:22:06.989Z,8.47
2019-02-22T14:24:34.238Z,6.60
2019-02-22T14:27:01.475Z,8.70
2019-02-22T14:29:29.085Z,10.47
2019-02-22T14:31:56.320Z,9.03
2019-02-22T14:34:23.590Z,11.67
2019-02-22T14:36:51.150Z,8.60
2019-02-22T14:39:18.273Z,23.07
2019-02-22T14:41:46.074Z,8.67
2019-02-22T14:44:13.275Z,9.23
2019-02-22T14:46:41.031Z,8.57
2019-02-22T14:49:08.702Z,7.80
2019-02-22T14:51:35.946Z,11.50
2019-02-22T14:54:03.106Z,9.80
2019-02-22T14:56:30.699Z,8.73
2019-02-22T14:58:57.868Z,8.50
2019-02-22T15:01:25.049Z,7.63
2019-02-22T15:03:52.281Z,10.50
2019-02-22T15:06:19.470Z,8.13
2019-02-22T15:08:46.640Z,7.73
2019-02-22T15:11:13.838Z,7.67
2019-02-22T15:13:41.156Z,10.63
2019-02-22T15:16:39.933Z,11.83
2019-02-22T15:19:07.090Z,14.50
2019-02-22T15:21:34.630Z,11.17
2019-02-22T15:24:01.892Z,8.50
2019-02-22T15:26:29.265Z,9.50
2019-02-22T15:28:56.483Z,8.33
2019-02-22T15:31:23.680Z,13.13
2019-02-22T15:33:51.145Z,7.90
2019-02-22T15:36:18.691Z,12.20
2019-02-22T15:38:46.093Z,8.50
2019-02-22T15:41:13.241Z,9.77
2019-02-22T15:43:40.400Z,9.50
2019-02-22T15:46:12.320Z,9.10
2019-02-22T15:48:37.121Z,10.20
2019-02-22T15:51:07.166Z,10.33
2019-02-22T15:53:33.467Z,10.13
2019-02-22T15:56:00.723Z,9.67
2019-02-22T15:58:27.913Z,6.60
2019-02-22T16:00:55.196Z,8.37
2019-02-22T16:03:22.536Z,10.83
2019-02-22T16:05:49.729Z,8.67
2019-02-22T16:08:16.958Z,9.93
2019-02-22T16:10:44.652Z,11.47
2019-02-22T16:13:11.904Z,15.80
2019-02-22T16:15:40.656Z,11.60
2019-02-22T16:18:08.021Z,12.33
2019-02-22T16:20:35.173Z,12.07
2019-02-22T16:23:02.355Z,10.63
2019-02-22T16:25:29.673Z,14.33
2019-02-22T16:27:57.138Z,11.77
2019-02-22T16:30:26.523Z,13.10
2019-02-22T16:32:53.705Z,11.70
2019-02-22T16:35:20.943Z,17.10
2019-02-22T16:37:48.263Z,16.20
2019-02-22T16:40:15.485Z,15.97
2019-02-22T16:42:42.724Z,12.57
2019-02-22T16:45:09.961Z,14.40
2019-02-22T16:47:40.345Z,16.70
2019-02-22T16:50:08.432Z,19.23
2019-02-22T16:52:35.617Z,12.70
2019-02-22T16:55:03.220Z,13.77
2019-02-22T16:57:30.847Z,15.17
2019-02-22T16:59:58.098Z,11.67
2019-02-22T17:02:25.285Z,13.30
2019-02-22T17:04:52.596Z,15.27
2019-02-22T17:07:19.782Z,16.30
2019-02-22T17:09:46.931Z,15.10
2019-02-22T17:12:14.486Z,12.90
2019-02-22T17:14:41.742Z,18.30
2019-02-22T17:17:08.925Z,15.80
2019-02-22T17:19:36.096Z,16.70
2019-02-22T17:22:03.341Z,16.83
2019-02-22T17:24:30.807Z,14.50
2019-02-22T17:26:58.042Z,16.53
2019-02-22T17:29:25.619Z,14.90
2019-02-22T17:31:52.888Z,17.63
2019-02-22T17:34:20.064Z,19.80
2019-02-22T17:36:47.250Z,14.77
2019-02-22T17:39:14.432Z,14.90
2019-02-22T17:41:42.873Z,16.27
2019-02-22T17:44:10.484Z,15.77
2019-02-22T17:46:37.708Z,18.20
2019-02-22T17:49:04.889Z,19.00
2019-02-22T17:51:32.114Z,15.80
2019-02-22T17:53:59.335Z,17.13
2019-02-22T17:56:26.600Z,15.23
2019-02-22T17:58:53.859Z,19.33
2019-02-22T18:01:21.050Z,22.67
2019-02-22T18:03:48.844Z,18.97
2019-02-22T18:06:16.412Z,13.97
2019-02-22T18:08:43.832Z,17.63
2019-02-22T18:11:11.046Z,14.07
2019-02-22T18:13:38.330Z,13.97
2019-02-22T18:16:05.561Z,18.90
2019-02-22T18:18:32.852Z,15.57
2019-02-22T18:21:00.084Z,19.70
2019-02-22T18:23:27.812Z,17.00
2019-02-22T18:25:55.181Z,13.10
2019-02-22T18:28:22.591Z,14.67
2019-02-22T18:30:49.820Z,14.93
2019-02-22T18:33:17.017Z,15.50
2019-02-22T18:35:44.100Z,19.10
2019-02-22T18:38:11.292Z,16.27
2019-02-22T18:40:38.460Z,16.97
2019-02-22T18:43:05.725Z,12.53
2019-02-22T18:45:32.890Z,17.40
2019-02-22T18:48:00.011Z,13.57
2019-02-22T18:50:27.221Z,16.70
2019-02-22T18:52:54.436Z,19.10
2019-02-22T18:55:21.630Z,27.80
2019-02-22T18:57:49.175Z,14.37
2019-02-22T19:00:17.311Z,15.40
2019-02-22T19:02:44.634Z,15.80
2019-02-22T19:05:11.856Z,16.20
2019-02-22T19:07:39.373Z,19.30
2019-02-22T19:10:07.643Z,18.67
2019-02-22T19:12:34.943Z,15.00
2019-02-22T19:15:02.837Z,17.63
2019-02-22T19:17:30.762Z,17.30
2019-02-22T19:19:58.065Z,18.17
2019-02-22T19:22:25.264Z,22.10
2019-02-22T19:24:52.490Z,17.33
2019-02-22T19:27:19.709Z,18.90
2019-02-22T19:29:47.099Z,16.73
2019-02-22T19:32:14.335Z,15.97
2019-02-22T19:34:41.563Z,14.50
2019-02-22T19:37:09.127Z,12.07
2019-02-22T19:39:36.430Z,17.93
2019-02-22T19:42:03.676Z,19.63
2019-02-22T19:44:30.859Z,16.90
2019-02-22T19:46:58.089Z,18.60
2019-02-22T19:49:25.287Z,15.03
2019-02-22T19:51:52.536Z,17.50
2019-02-22T19:54:19.999Z,19.50
2019-02-22T19:56:47.231Z,16.70
2019-02-22T19:59:14.463Z,20.57
2019-02-22T20:01:41.702Z,19.03
2019-02-22T20:04:08.885Z,16.70
2019-02-22T20:06:36.084Z,17.97
2019-02-22T20:09:05.157Z,17.87
2019-02-22T20:11:32.724Z,19.90
2019-02-22T20:14:00.227Z,18.80
2019-02-22T20:16:27.425Z,17.97
2019-02-22T20:18:54.950Z,17.53
2019-02-22T20:21:22.418Z,20.63
2019-02-22T20:23:49.669Z,19.27
2019-02-22T20:26:16.967Z,18.27
2019-02-22T20:28:44.188Z,17.83
2019-02-22T20:31:19.857Z,18.27
2019-02-22T20:33:40.561Z,19.77
2019-02-22T20:36:07.777Z,14.73
2019-02-22T20:38:35.037Z,16.10
2019-02-22T20:41:02.661Z,17.33
2019-02-22T20:43:29.965Z,20.07
2019-02-22T20:45:57.512Z,16.13
2019-02-22T20:48:24.737Z,18.50
2019-02-22T20:50:51.880Z,18.03
2019-02-22T20:53:19.099Z,17.73
2019-02-22T20:55:46.324Z,22.90
2019-02-22T20:58:13.572Z,16.13
2019-02-22T21:00:40.707Z,18.83
2019-02-22T21:03:07.964Z,20.53
2019-02-22T21:05:35.311Z,14.43
2019-02-22T21:08:02.523Z,16.90
2019-02-22T21:10:29.719Z,13.00
2019-02-22T21:12:56.950Z,10.80
2019-02-22T21:15:24.444Z,19.03
2019-02-22T21:17:51.552Z,13.63
2019-02-22T21:20:18.757Z,14.23
2019-02-22T21:22:46.008Z,15.90
2019-02-22T21:25:13.521Z,12.43
2019-02-22T21:27:40.750Z,11.30
2019-02-22T21:30:09.318Z,11.17
2019-02-22T21:32:36.814Z,11.50
2019-02-22T21:35:03.996Z,12.53
2019-02-22T21:37:31.219Z,12.63
2019-02-22T21:39:58.743Z,12.50
2019-02-22T21:42:25.967Z,8.87
2019-02-22T21:44:53.155Z,10.97
2019-02-22T21:47:20.714Z,12.30
2019-02-22T21:49:48.172Z,8.67
2019-02-22T21:52:15.376Z,7.70
2019-02-22T21:54:42.569Z,7.10
2019-02-22T21:57:09.776Z,8.37
2019-02-22T21:59:37.187Z,10.20
2019-02-22T22:02:04.496Z,6.83
2019-02-22T22:04:31.958Z,7.40
2019-02-22T22:06:59.128Z,8.90
2019-02-22T22:09:26.692Z,9.90
2019-02-22T22:11:53.936Z,7.83
2019-02-22T22:14:21.119Z,9.77
2019-02-22T22:16:48.692Z,10.10
2019-02-22T22:19:15.889Z,10.77
2019-02-22T22:21:45.215Z,8.60
2019-02-22T22:24:12.252Z,8.43
2019-02-22T22:26:39.428Z,8.30
2019-02-22T22:29:06.626Z,11.40
2019-02-22T22:31:34.472Z,10.20
2019-02-22T22:34:01.663Z,9.10
2019-02-22T22:36:29.422Z,8.63
2019-02-22T22:38:56.614Z,10.63
2019-02-22T22:41:23.850Z,7.80
2019-02-22T22:43:51.061Z,8.33
2019-02-22T22:46:18.398Z,8.40
2019-02-22T22:48:50.361Z,10.20
2019-02-22T22:51:14.755Z,9.60
2019-02-22T22:53:42.291Z,7.50
2019-02-22T22:56:09.447Z,8.97
2019-02-22T22:58:36.641Z,7.40
2019-02-22T23:01:11.661Z,7.00
2019-02-22T23:03:39.543Z,8.27
2019-02-22T23:06:08.188Z,8.80
2019-02-22T23:08:35.377Z,7.23
2019-02-22T23:11:02.675Z,8.40
2019-02-22T23:13:29.879Z,8.17
2019-02-22T23:15:57.069Z,9.20
2019-02-22T23:18:24.261Z,9.50
2019-02-22T23:20:51.388Z,8.83
2019-02-22T23:23:18.705Z,9.37
2019-02-22T23:25:45.819Z,7.83
2019-02-22T23:28:13.014Z,9.30
2019-02-22T23:30:40.209Z,8.53
2019-02-22T23:33:07.417Z,8.60
2019-02-22T23:35:34.510Z,9.10
2019-02-22T23:38:01.836Z,10.03
2019-02-22T23:40:29.119Z,12.83
2019-02-22T23:42:56.311Z,10.27
2019-02-22T23:45:23.582Z,9.63
2019-02-22T23:47:50.664Z,10.07
2019-02-22T23:50:17.992Z,10.20
2019-02-22T23:52:45.483Z,9.83
2019-02-22T23:55:12.649Z,9.80
2019-02-22T23:57:39.913Z,10.27
